createdAt,value
2023-01-29T00:00:10.632Z,2.97
2023-01-29T00:02:39.257Z,3.40
2023-01-29T00:05:26.118Z,3.50
2023-01-29T00:07:55.006Z,3.20
2023-01-29T00:10:23.626Z,3.30
2023-01-29T00:12:53.245Z,3.40
2023-01-29T00:15:22.201Z,3.93
2023-01-29T00:17:50.383Z,3.70
2023-01-29T00:20:19.301Z,3.70
2023-01-29T00:22:47.573Z,3.30
2023-01-29T00:25:15.752Z,3.63
2023-01-29T00:27:45.154Z,3.60
2023-01-29T00:30:19.458Z,3.30
2023-01-29T00:32:48.620Z,3.70
2023-01-29T00:35:17.384Z,3.80
2023-01-29T00:37:46.431Z,3.80
2023-01-29T00:40:15.442Z,3.33
2023-01-29T00:43:03.693Z,3.47
2023-01-29T00:45:33.644Z,3.70
2023-01-29T00:48:01.884Z,3.43
2023-01-29T00:50:31.175Z,3.90
2023-01-29T00:53:00.113Z,4.13
2023-01-29T00:55:28.349Z,3.70
2023-01-29T00:57:56.925Z,4.50
2023-01-29T01:00:25.902Z,3.90
2023-01-29T01:03:06.912Z,4.37
2023-01-29T01:05:35.279Z,3.80
2023-01-29T01:08:03.852Z,4.17
2023-01-29T01:10:33.352Z,3.47
2023-01-29T01:13:03.356Z,3.97
2023-01-29T01:15:33.808Z,3.73
2023-01-29T01:18:04.712Z,3.90
2023-01-29T01:20:35.343Z,4.30
2023-01-29T01:23:03.498Z,3.50
2023-01-29T01:25:32.218Z,3.60
2023-01-29T01:28:01.308Z,3.93
2023-01-29T01:30:29.979Z,3.70
2023-01-29T01:32:58.116Z,3.37
2023-01-29T01:35:27.602Z,3.20
2023-01-29T01:37:56.294Z,3.73
2023-01-29T01:40:26.283Z,3.80
2023-01-29T01:42:56.737Z,3.80
2023-01-29T01:45:28.528Z,3.90
2023-01-29T01:48:00.908Z,3.60
2023-01-29T01:50:33.908Z,3.50
2023-01-29T01:53:05.925Z,3.90
2023-01-29T01:55:36.814Z,3.70
2023-01-29T01:58:10.460Z,3.60
2023-01-29T02:00:39.134Z,3.00
2023-01-29T02:03:25.934Z,3.43
2023-01-29T02:06:17.897Z,3.50
2023-01-29T02:09:11.263Z,3.53
2023-01-29T02:11:39.788Z,3.63
2023-01-29T02:14:08.307Z,3.87
2023-01-29T02:16:37.380Z,3.50
2023-01-29T02:19:11.075Z,3.90
2023-01-29T02:22:20.938Z,3.60
2023-01-29T02:25:25.310Z,3.23
2023-01-29T02:32:00.738Z,3.77
2023-01-29T02:34:56.967Z,4.03
2023-01-29T02:37:35.415Z,4.00
2023-01-29T02:40:13.930Z,4.10
2023-01-29T02:42:50.755Z,4.33
2023-01-29T02:45:23.657Z,4.57
2023-01-29T02:48:00.144Z,4.50
2023-01-29T02:50:34.713Z,3.63
2023-01-29T02:53:07.576Z,4.70
2023-01-29T02:55:39.820Z,4.53
2023-01-29T02:58:14.539Z,3.97
2023-01-29T03:00:46.461Z,4.67
2023-01-29T03:03:19.438Z,4.27
2023-01-29T03:05:55.529Z,4.07
2023-01-29T03:08:37.470Z,4.40
2023-01-29T03:11:07.818Z,4.47
2023-01-29T03:13:42.323Z,4.10
2023-01-29T03:16:15.778Z,4.23
2023-01-29T03:18:50.978Z,4.07
2023-01-29T03:21:40.798Z,4.13
2023-01-29T03:24:29.783Z,4.37
2023-01-29T03:27:18.044Z,4.30
2023-01-29T03:30:05.368Z,4.20
2023-01-29T03:32:36.581Z,4.40
2023-01-29T03:35:11.014Z,4.50
2023-01-29T03:37:45.122Z,4.10
2023-01-29T03:40:15.011Z,4.73
2023-01-29T03:42:54.121Z,4.20
2023-01-29T03:45:28.257Z,4.27
2023-01-29T03:48:06.597Z,4.53
2023-01-29T03:50:42.100Z,4.37
2023-01-29T03:53:18.174Z,4.27
2023-01-29T03:55:58.773Z,4.37
2023-01-29T03:58:37.114Z,3.77
2023-01-29T04:01:11.875Z,4.43
2023-01-29T04:03:45.570Z,4.33
2023-01-29T04:06:19.262Z,4.60
2023-01-29T04:08:53.991Z,4.10
2023-01-29T04:11:24.034Z,4.33
2023-01-29T04:13:53.807Z,4.77
2023-01-29T04:16:26.841Z,4.87
2023-01-29T04:18:55.563Z,4.67
2023-01-29T04:21:26.934Z,4.40
2023-01-29T04:23:55.637Z,4.40
2023-01-29T04:26:34.620Z,4.30
2023-01-29T04:29:30.526Z,4.40
2023-01-29T04:32:08.388Z,3.90
2023-01-29T04:34:47.351Z,4.57
2023-01-29T04:37:24.793Z,4.60
2023-01-29T04:40:00.286Z,4.17
2023-01-29T04:42:32.788Z,4.17
2023-01-29T04:45:07.842Z,4.70
2023-01-29T04:47:43.789Z,4.67
2023-01-29T04:50:18.386Z,4.30
2023-01-29T04:52:57.621Z,4.60
2023-01-29T04:55:34.498Z,4.43
2023-01-29T04:58:10.762Z,4.80
2023-01-29T05:00:42.614Z,4.50
2023-01-29T05:03:13.117Z,5.10
2023-01-29T05:05:45.286Z,4.40
2023-01-29T05:08:17.435Z,5.00
2023-01-29T05:10:47.900Z,5.03
2023-01-29T05:13:16.803Z,4.97
2023-01-29T05:15:50.712Z,4.87
2023-01-29T05:18:18.935Z,5.17
2023-01-29T05:20:49.587Z,4.93
2023-01-29T05:23:21.564Z,5.03
2023-01-29T05:25:51.905Z,4.67
2023-01-29T05:28:19.630Z,5.17
2023-01-29T05:30:49.866Z,4.60
2023-01-29T05:33:20.360Z,4.70
2023-01-29T05:35:48.963Z,4.37
2023-01-29T05:38:19.352Z,4.67
2023-01-29T05:40:48.168Z,4.50
2023-01-29T05:43:17.795Z,4.07
2023-01-29T05:45:54.222Z,4.60
2023-01-29T05:48:23.298Z,4.83
2023-01-29T05:50:52.094Z,4.03
2023-01-29T05:53:21.756Z,3.97
2023-01-29T05:55:50.354Z,4.57
2023-01-29T05:58:19.741Z,4.40
2023-01-29T06:00:48.379Z,4.90
2023-01-29T06:03:16.916Z,4.40
2023-01-29T06:05:45.058Z,4.77
2023-01-29T06:08:13.835Z,4.50
2023-01-29T06:10:43.852Z,4.93
2023-01-29T06:13:12.424Z,5.23
2023-01-29T06:15:41.520Z,5.43
2023-01-29T06:18:09.623Z,5.00
2023-01-29T06:20:39.433Z,4.80
2023-01-29T06:23:07.583Z,4.90
2023-01-29T06:25:36.290Z,5.27
2023-01-29T06:28:08.152Z,4.73
2023-01-29T06:30:36.777Z,5.10
2023-01-29T06:33:04.978Z,5.43
2023-01-29T06:35:33.583Z,5.03
2023-01-29T06:38:02.214Z,5.00
2023-01-29T06:40:30.816Z,4.93
2023-01-29T06:43:01.067Z,5.40
2023-01-29T06:45:31.091Z,5.03
2023-01-29T06:48:01.392Z,5.67
2023-01-29T06:50:30.225Z,5.13
2023-01-29T06:53:00.411Z,5.00
2023-01-29T06:55:28.944Z,4.80
2023-01-29T06:57:57.501Z,5.20
2023-01-29T07:00:26.093Z,5.30
2023-01-29T07:02:56.019Z,5.27
2023-01-29T07:05:24.591Z,5.23
2023-01-29T07:07:53.154Z,5.80
2023-01-29T07:10:21.766Z,5.23
2023-01-29T07:12:49.849Z,5.20
2023-01-29T07:15:20.843Z,5.53
2023-01-29T07:18:00.938Z,5.40
2023-01-29T07:20:30.642Z,5.40
2023-01-29T07:22:59.445Z,5.47
2023-01-29T07:25:27.695Z,5.60
2023-01-29T07:27:55.773Z,5.97
2023-01-29T07:30:24.054Z,5.77
2023-01-29T07:32:52.122Z,5.60
2023-01-29T07:35:22.305Z,6.10
2023-01-29T07:37:50.829Z,6.23
2023-01-29T07:40:19.320Z,6.07
2023-01-29T07:42:47.406Z,5.93
2023-01-29T07:45:16.009Z,6.00
2023-01-29T07:47:44.103Z,6.10
2023-01-29T07:50:13.450Z,6.37
2023-01-29T07:52:42.905Z,5.87
2023-01-29T07:55:11.818Z,6.77
2023-01-29T07:57:39.976Z,6.27
2023-01-29T08:00:09.148Z,6.77
2023-01-29T08:02:37.863Z,6.97
2023-01-29T08:05:06.662Z,6.47
2023-01-29T08:07:35.298Z,6.53
2023-01-29T08:10:06.036Z,6.40
2023-01-29T08:12:34.128Z,6.90
2023-01-29T08:15:02.669Z,6.83
2023-01-29T08:17:30.735Z,7.00
2023-01-29T08:19:58.830Z,6.20
2023-01-29T08:22:26.903Z,6.40
2023-01-29T08:25:06.421Z,8.57
2023-01-29T08:27:37.852Z,8.70
2023-01-29T08:30:07.274Z,8.37
2023-01-29T08:32:35.569Z,14.63
2023-01-29T08:35:03.726Z,11.43
2023-01-29T08:37:31.797Z,7.80
2023-01-29T08:40:00.514Z,6.77
2023-01-29T08:42:29.013Z,6.87
2023-01-29T08:44:58.989Z,6.90
2023-01-29T08:47:28.626Z,7.20
2023-01-29T08:49:56.863Z,6.80
2023-01-29T08:52:24.961Z,6.47
2023-01-29T08:54:52.992Z,6.63
2023-01-29T08:57:21.558Z,6.53
2023-01-29T08:59:50.135Z,6.60
2023-01-29T09:02:19.628Z,6.90
2023-01-29T09:04:47.731Z,6.40
2023-01-29T09:07:16.423Z,6.47
2023-01-29T09:09:44.572Z,5.97
2023-01-29T09:12:13.144Z,7.07
2023-01-29T09:14:41.679Z,6.33
2023-01-29T09:17:10.163Z,5.90
2023-01-29T09:19:40.174Z,6.23
2023-01-29T09:22:09.453Z,6.80
2023-01-29T09:24:39.453Z,6.97
2023-01-29T09:27:07.527Z,6.10
2023-01-29T09:29:36.133Z,7.10
2023-01-29T09:32:05.680Z,6.60
2023-01-29T09:34:35.651Z,6.80
2023-01-29T09:37:05.137Z,6.83
2023-01-29T09:39:33.743Z,7.13
2023-01-29T09:42:09.282Z,7.10
2023-01-29T09:44:53.382Z,7.60
2023-01-29T09:47:22.403Z,6.80
2023-01-29T09:49:54.359Z,7.00
2023-01-29T09:52:27.517Z,6.80
2023-01-29T09:55:03.160Z,7.40
2023-01-29T09:57:40.700Z,6.83
2023-01-29T10:00:16.414Z,7.27
2023-01-29T10:03:09.934Z,7.17
2023-01-29T10:06:05.087Z,7.23
2023-01-29T10:09:32.307Z,7.43
2023-01-29T10:12:13.359Z,8.17
2023-01-29T10:14:56.113Z,7.67
2023-01-29T10:17:40.557Z,7.10
2023-01-29T10:20:29.530Z,7.53
2023-01-29T10:23:07.128Z,7.40
2023-01-29T10:25:41.097Z,6.83
2023-01-29T10:28:19.175Z,7.43
2023-01-29T10:30:50.479Z,7.60
2023-01-29T10:33:36.093Z,7.53
2023-01-29T10:36:17.502Z,7.30
2023-01-29T10:38:47.977Z,7.10
2023-01-29T10:41:28.318Z,7.53
2023-01-29T10:44:08.622Z,7.20
2023-01-29T10:46:51.051Z,6.70
2023-01-29T10:49:31.215Z,7.40
2023-01-29T10:52:12.285Z,7.03
2023-01-29T10:54:55.671Z,6.87
2023-01-29T10:57:45.426Z,6.43
2023-01-29T11:00:19.412Z,6.50
2023-01-29T11:02:50.741Z,7.30
2023-01-29T11:05:25.019Z,7.17
2023-01-29T11:08:04.429Z,7.27
2023-01-29T11:10:39.353Z,7.10
2023-01-29T11:13:14.990Z,6.40
2023-01-29T11:15:43.090Z,6.63
2023-01-29T11:18:14.597Z,7.07
2023-01-29T11:20:44.344Z,6.67
2023-01-29T11:23:27.099Z,6.63
2023-01-29T11:25:56.788Z,6.00
2023-01-29T11:28:44.049Z,6.53
2023-01-29T11:31:22.063Z,7.53
2023-01-29T11:33:53.798Z,7.50
2023-01-29T11:36:33.979Z,6.47
2023-01-29T11:39:19.029Z,6.80
2023-01-29T11:41:51.818Z,6.17
2023-01-29T11:44:23.754Z,6.00
2023-01-29T11:46:52.061Z,6.00
2023-01-29T11:49:30.538Z,5.70
2023-01-29T11:52:01.874Z,6.30
2023-01-29T11:54:35.699Z,6.00
2023-01-29T11:57:05.211Z,6.33
2023-01-29T11:59:49.013Z,6.87
2023-01-29T12:02:32.246Z,5.93
2023-01-29T12:05:05.816Z,6.33
2023-01-29T12:07:35.340Z,5.80
2023-01-29T12:10:04.164Z,5.90
2023-01-29T12:12:42.754Z,5.40
2023-01-29T12:15:22.855Z,5.30
2023-01-29T12:18:06.672Z,4.87
2023-01-29T12:20:41.150Z,6.07
2023-01-29T12:23:25.103Z,5.63
2023-01-29T12:26:01.899Z,5.30
2023-01-29T12:28:42.414Z,5.80
2023-01-29T12:31:28.658Z,5.53
2023-01-29T12:34:06.645Z,5.30
2023-01-29T12:36:39.969Z,5.20
2023-01-29T12:39:10.328Z,5.47
2023-01-29T12:41:45.970Z,5.30
2023-01-29T12:44:20.348Z,5.73
2023-01-29T12:46:55.541Z,5.30
2023-01-29T12:49:26.432Z,5.50
2023-01-29T12:52:00.454Z,4.83
2023-01-29T12:54:36.585Z,5.10
2023-01-29T12:57:10.612Z,5.50
2023-01-29T12:59:44.282Z,5.37
2023-01-29T13:02:33.230Z,6.00
2023-01-29T13:05:07.006Z,5.73
2023-01-29T13:07:40.792Z,6.20
2023-01-29T13:10:15.864Z,5.73
2023-01-29T13:12:53.959Z,6.33
2023-01-29T13:15:28.362Z,5.20
2023-01-29T13:18:04.269Z,4.70
2023-01-29T13:20:35.129Z,5.43
2023-01-29T13:23:19.837Z,5.50
2023-01-29T13:25:50.695Z,5.60
2023-01-29T13:28:21.253Z,5.20
2023-01-29T13:31:14.498Z,5.40
2023-01-29T13:33:45.164Z,5.03
2023-01-29T13:36:20.039Z,4.90
2023-01-29T13:38:54.864Z,5.23
2023-01-29T13:41:34.349Z,5.03
2023-01-29T13:44:02.924Z,4.87
2023-01-29T13:46:32.242Z,5.67
2023-01-29T13:49:05.455Z,5.73
2023-01-29T13:51:37.593Z,5.97
2023-01-29T13:54:09.895Z,5.90
2023-01-29T13:57:00.141Z,5.33
2023-01-29T13:59:53.349Z,5.80
2023-01-29T14:02:25.503Z,5.97
2023-01-29T14:05:34.518Z,5.63
2023-01-29T14:08:04.361Z,5.30
2023-01-29T14:10:34.236Z,5.23
2023-01-29T14:13:30.319Z,5.57
2023-01-29T14:16:28.798Z,5.00
2023-01-29T14:19:00.197Z,5.10
2023-01-29T14:21:32.043Z,4.90
2023-01-29T14:24:11.338Z,5.03
2023-01-29T14:26:45.638Z,5.00
2023-01-29T14:29:39.974Z,5.17
2023-01-29T14:32:19.849Z,5.27
2023-01-29T14:34:50.916Z,4.70
2023-01-29T14:37:32.917Z,5.33
2023-01-29T14:40:14.682Z,5.20
2023-01-29T14:42:52.451Z,5.00
2023-01-29T14:45:26.712Z,5.37
2023-01-29T14:47:57.890Z,5.00
2023-01-29T14:50:50.627Z,5.53
2023-01-29T14:53:25.630Z,5.27
2023-01-29T14:56:01.318Z,5.50
2023-01-29T14:58:38.413Z,5.57
2023-01-29T15:01:15.946Z,4.93
2023-01-29T15:03:47.137Z,5.23
2023-01-29T15:06:20.118Z,4.33
2023-01-29T15:08:55.083Z,5.20
2023-01-29T15:11:37.687Z,5.10
2023-01-29T15:14:15.237Z,4.90
2023-01-29T15:16:52.133Z,5.03
2023-01-29T15:19:26.994Z,5.23
2023-01-29T15:22:10.016Z,5.30
2023-01-29T15:24:40.589Z,5.00
2023-01-29T15:27:14.178Z,5.70
2023-01-29T15:29:44.367Z,5.60
2023-01-29T15:32:20.641Z,5.40
2023-01-29T15:34:50.262Z,5.43
2023-01-29T15:37:30.058Z,6.33
2023-01-29T15:40:01.476Z,5.50
2023-01-29T15:42:30.443Z,5.77
2023-01-29T15:44:59.582Z,5.33
2023-01-29T15:47:32.740Z,6.00
2023-01-29T15:50:01.874Z,5.40
2023-01-29T15:52:35.268Z,5.60
2023-01-29T15:55:08.081Z,5.27
2023-01-29T15:57:42.070Z,5.60
2023-01-29T16:00:23.692Z,5.37
2023-01-29T16:02:52.322Z,5.40
2023-01-29T16:05:23.081Z,5.43
2023-01-29T16:07:52.311Z,5.67
2023-01-29T16:10:24.256Z,4.97
2023-01-29T16:12:54.151Z,6.47
2023-01-29T16:15:29.870Z,8.00
2023-01-29T16:18:00.473Z,7.80
2023-01-29T16:20:34.877Z,8.50
2023-01-29T16:23:03.225Z,16.77
2023-01-29T16:25:41.070Z,11.03
2023-01-29T16:28:11.557Z,8.27
2023-01-29T16:30:40.843Z,8.03
2023-01-29T16:33:14.472Z,8.10
2023-01-29T16:35:43.631Z,7.50
2023-01-29T16:38:27.328Z,7.97
2023-01-29T16:41:28.783Z,8.90
2023-01-29T16:44:00.291Z,8.37
2023-01-29T16:46:35.108Z,6.83
2023-01-29T16:49:04.140Z,7.73
2023-01-29T16:51:37.519Z,7.67
2023-01-29T16:54:12.744Z,9.70
2023-01-29T16:56:44.996Z,9.73
2023-01-29T16:59:21.682Z,10.30
2023-01-29T17:01:50.494Z,10.73
2023-01-29T17:04:20.653Z,9.43
2023-01-29T17:06:54.773Z,8.10
2023-01-29T17:09:26.475Z,7.13
2023-01-29T17:11:58.871Z,7.40
2023-01-29T17:14:28.223Z,8.60
2023-01-29T17:16:58.456Z,6.83
2023-01-29T17:19:26.585Z,9.10
2023-01-29T17:21:55.248Z,11.00
2023-01-29T17:24:23.340Z,10.60
2023-01-29T17:26:52.984Z,12.63
2023-01-29T17:29:27.622Z,12.63
2023-01-29T17:31:56.147Z,12.40
2023-01-29T17:34:25.598Z,11.70
2023-01-29T17:36:54.189Z,13.10
2023-01-29T17:39:24.556Z,11.43
2023-01-29T17:41:54.635Z,9.63
2023-01-29T17:44:26.107Z,9.80
2023-01-29T17:46:54.964Z,10.07
2023-01-29T17:49:26.169Z,9.10
2023-01-29T17:51:55.968Z,7.90
2023-01-29T17:54:25.639Z,9.00
2023-01-29T17:56:54.860Z,7.70
2023-01-29T17:59:28.250Z,7.77
2023-01-29T18:01:56.390Z,8.63
2023-01-29T18:04:24.592Z,9.03
2023-01-29T18:06:54.834Z,8.50
2023-01-29T18:09:23.947Z,8.83
2023-01-29T18:11:53.446Z,8.40
2023-01-29T18:14:23.491Z,9.20
2023-01-29T18:16:52.062Z,9.40
2023-01-29T18:19:23.247Z,9.03
2023-01-29T18:21:53.512Z,9.00
2023-01-29T18:24:21.670Z,8.87
2023-01-29T18:26:51.662Z,8.90
2023-01-29T18:29:20.301Z,8.40
2023-01-29T18:31:50.805Z,8.33
2023-01-29T18:34:19.413Z,8.37
2023-01-29T18:36:47.943Z,8.53
2023-01-29T18:39:16.433Z,9.00
2023-01-29T18:41:44.686Z,10.20
2023-01-29T18:44:12.862Z,11.10
2023-01-29T18:46:40.935Z,10.47
2023-01-29T18:49:11.319Z,9.83
2023-01-29T18:51:39.384Z,10.30
2023-01-29T18:54:07.545Z,9.03
2023-01-29T18:56:35.607Z,9.40
2023-01-29T18:59:05.713Z,8.83
2023-01-29T19:01:35.196Z,7.97
2023-01-29T19:04:03.274Z,9.77
2023-01-29T19:06:37.089Z,8.37
2023-01-29T19:09:06.498Z,8.60
2023-01-29T19:11:34.849Z,7.80
2023-01-29T19:14:03.008Z,8.17
2023-01-29T19:16:31.181Z,8.03
2023-01-29T19:18:59.851Z,8.17
2023-01-29T19:21:28.983Z,9.13
2023-01-29T19:23:58.437Z,9.20
2023-01-29T19:26:26.526Z,8.77
2023-01-29T19:28:55.142Z,8.37
2023-01-29T19:31:23.330Z,8.73
2023-01-29T19:33:52.027Z,9.83
2023-01-29T19:36:20.135Z,8.53
2023-01-29T19:38:49.112Z,8.27
2023-01-29T19:41:18.689Z,9.33
2023-01-29T19:43:48.764Z,9.37
2023-01-29T19:46:17.577Z,9.60
2023-01-29T19:48:46.984Z,9.87
2023-01-29T19:51:15.975Z,9.73
2023-01-29T19:53:44.867Z,9.23
2023-01-29T19:56:15.083Z,8.90
2023-01-29T19:58:45.795Z,10.40
2023-01-29T20:01:19.022Z,10.80
2023-01-29T20:03:48.620Z,9.27
2023-01-29T20:06:18.258Z,11.30
2023-01-29T20:08:47.286Z,9.43
2023-01-29T20:11:16.517Z,10.67
2023-01-29T20:13:48.706Z,11.03
2023-01-29T20:16:18.336Z,10.83
2023-01-29T20:18:46.474Z,11.33
2023-01-29T20:21:17.101Z,11.87
2023-01-29T20:23:46.044Z,13.90
2023-01-29T20:26:16.571Z,13.30
2023-01-29T20:28:47.204Z,11.70
2023-01-29T20:31:16.584Z,11.03
2023-01-29T20:33:45.360Z,13.43
2023-01-29T20:36:15.304Z,13.20
2023-01-29T20:38:43.515Z,13.27
2023-01-29T20:41:15.817Z,12.67
2023-01-29T20:43:46.923Z,12.73
2023-01-29T20:46:15.555Z,13.77
2023-01-29T20:48:44.160Z,12.10
2023-01-29T20:51:15.568Z,13.27
2023-01-29T20:53:46.048Z,12.63
2023-01-29T20:56:15.901Z,12.30
2023-01-29T20:58:47.140Z,12.23
2023-01-29T21:01:17.817Z,13.13
2023-01-29T21:03:47.187Z,11.90
2023-01-29T21:06:15.844Z,12.43
2023-01-29T21:08:44.081Z,12.00
2023-01-29T21:11:12.317Z,12.23
2023-01-29T21:13:40.802Z,13.20
2023-01-29T21:16:11.392Z,11.60
2023-01-29T21:18:39.597Z,12.30
2023-01-29T21:21:08.194Z,12.87
2023-01-29T21:23:36.781Z,11.93
2023-01-29T21:26:06.052Z,12.23
2023-01-29T21:28:34.979Z,12.63
2023-01-29T21:31:08.007Z,11.83
2023-01-29T21:33:38.144Z,12.13
2023-01-29T21:36:07.635Z,12.83
2023-01-29T21:38:35.709Z,13.03
2023-01-29T21:41:05.938Z,13.13
2023-01-29T21:43:33.324Z,12.60
2023-01-29T21:46:04.387Z,13.17
2023-01-29T21:48:32.701Z,12.87
2023-01-29T21:51:02.623Z,12.00
2023-01-29T21:53:30.727Z,13.13
2023-01-29T21:56:00.975Z,13.13
2023-01-29T21:58:30.302Z,11.60
2023-01-29T22:01:18.571Z,12.10
2023-01-29T22:03:47.514Z,11.83
2023-01-29T22:06:17.711Z,13.47
2023-01-29T22:08:45.934Z,13.23
2023-01-29T22:11:14.768Z,12.07
2023-01-29T22:13:43.440Z,12.20
2023-01-29T22:16:12.075Z,11.67
2023-01-29T22:18:40.149Z,12.83
2023-01-29T22:21:08.727Z,12.87
2023-01-29T22:23:38.173Z,13.90
2023-01-29T22:26:08.083Z,14.47
2023-01-29T22:28:36.297Z,12.80
2023-01-29T22:31:06.117Z,13.30
2023-01-29T22:33:34.370Z,12.00
2023-01-29T22:36:03.131Z,13.30
2023-01-29T22:38:32.026Z,12.67
2023-01-29T22:41:02.634Z,13.67
2023-01-29T22:43:31.613Z,12.47
2023-01-29T22:45:59.755Z,13.50
2023-01-29T22:48:29.092Z,13.43
2023-01-29T22:51:09.319Z,14.27
2023-01-29T22:53:38.489Z,13.23
2023-01-29T22:56:09.408Z,13.63
2023-01-29T22:58:37.615Z,13.77
2023-01-29T23:01:06.124Z,13.33
2023-01-29T23:03:34.907Z,14.27
2023-01-29T23:06:04.112Z,12.07
2023-01-29T23:08:34.415Z,11.47
2023-01-29T23:11:14.311Z,13.00
2023-01-29T23:13:46.509Z,12.83
2023-01-29T23:16:16.159Z,12.53
2023-01-29T23:18:45.189Z,11.90
2023-01-29T23:21:13.424Z,11.73
2023-01-29T23:23:44.698Z,11.90
2023-01-29T23:26:32.195Z,12.20
2023-01-29T23:29:04.280Z,11.83
2023-01-29T23:31:33.225Z,11.37
2023-01-29T23:34:01.332Z,12.33
2023-01-29T23:36:29.945Z,11.23
2023-01-29T23:38:58.634Z,11.43
2023-01-29T23:41:26.717Z,11.20
2023-01-29T23:43:55.281Z,11.63
2023-01-29T23:46:24.847Z,12.13
2023-01-29T23:48:53.449Z,13.20
2023-01-29T23:51:22.015Z,12.53
2023-01-29T23:53:50.563Z,12.13
2023-01-29T23:56:18.731Z,12.20
2023-01-29T23:58:47.036Z,11.70
